sensor_id;sensor_type;location;lat;lon;timestamp;P1;durP1;ratioP1;P2;durP2;ratioP2
5077;SDS011;2557;51.390;7.494;2022-10-16T00:01:37;3.40;;;3.10;;
5077;SDS011;2557;51.390;7.494;2022-10-16T00:04:03;2.80;;;2.33;;
5077;SDS011;2557;51.390;7.494;2022-10-16T00:06:30;2.67;;;2.47;;
5077;SDS011;2557;51.390;7.494;2022-10-16T00:08:56;10.83;;;3.40;;
5077;SDS011;2557;51.390;7.494;2022-10-16T00:11:24;7.00;;;2.80;;
5077;SDS011;2557;51.390;7.494;2022-10-16T00:13:51;4.40;;;2.73;;
5077;SDS011;2557;51.390;7.494;2022-10-16T00:16:17;4.50;;;2.73;;
5077;SDS011;2557;51.390;7.494;2022-10-16T00:18:43;5.33;;;3.00;;
5077;SDS011;2557;51.390;7.494;2022-10-16T00:21:14;2.63;;;2.50;;
5077;SDS011;2557;51.390;7.494;2022-10-16T00:23:40;7.23;;;3.20;;
5077;SDS011;2557;51.390;7.494;2022-10-16T00:26:12;10.77;;;3.10;;
5077;SDS011;2557;51.390;7.494;2022-10-16T00:28:38;8.20;;;3.77;;
5077;SDS011;2557;51.390;7.494;2022-10-16T00:31:05;10.50;;;3.10;;
5077;SDS011;2557;51.390;7.494;2022-10-16T00:33:31;9.07;;;3.00;;
5077;SDS011;2557;51.390;7.494;2022-10-16T00:35:58;3.80;;;2.70;;
5077;SDS011;2557;51.390;7.494;2022-10-16T00:38:24;8.13;;;3.27;;
5077;SDS011;2557;51.390;7.494;2022-10-16T00:40:50;7.30;;;2.90;;
5077;SDS011;2557;51.390;7.494;2022-10-16T00:43:32;6.40;;;3.17;;
5077;SDS011;2557;51.390;7.494;2022-10-16T00:46:00;4.20;;;2.80;;
5077;SDS011;2557;51.390;7.494;2022-10-16T00:48:27;4.77;;;2.73;;
5077;SDS011;2557;51.390;7.494;2022-10-16T00:50:53;4.33;;;2.83;;
5077;SDS011;2557;51.390;7.494;2022-10-16T00:53:19;6.70;;;3.77;;
5077;SDS011;2557;51.390;7.494;2022-10-16T00:55:45;3.00;;;2.70;;
5077;SDS011;2557;51.390;7.494;2022-10-16T00:58:11;3.73;;;2.67;;
5077;SDS011;2557;51.390;7.494;2022-10-16T01:00:38;12.70;;;2.70;;
5077;SDS011;2557;51.390;7.494;2022-10-16T01:03:22;3.17;;;2.47;;
5077;SDS011;2557;51.390;7.494;2022-10-16T01:05:54;3.33;;;2.20;;
5077;SDS011;2557;51.390;7.494;2022-10-16T01:09:06;3.90;;;2.37;;
5077;SDS011;2557;51.390;7.494;2022-10-16T01:11:17;2.37;;;2.20;;
5077;SDS011;2557;51.390;7.494;2022-10-16T01:13:47;5.53;;;2.47;;
5077;SDS011;2557;51.390;7.494;2022-10-16T01:16:20;3.93;;;2.03;;
5077;SDS011;2557;51.390;7.494;2022-10-16T01:19:12;11.80;;;3.10;;
5077;SDS011;2557;51.390;7.494;2022-10-16T01:21:40;4.67;;;2.83;;
5077;SDS011;2557;51.390;7.494;2022-10-16T01:24:11;4.03;;;2.60;;
5077;SDS011;2557;51.390;7.494;2022-10-16T01:29:11;2.37;;;2.17;;
5077;SDS011;2557;51.390;7.494;2022-10-16T01:31:39;2.43;;;2.27;;
5077;SDS011;2557;51.390;7.494;2022-10-16T01:34:06;9.40;;;2.83;;
5077;SDS011;2557;51.390;7.494;2022-10-16T01:36:35;2.53;;;2.33;;
5077;SDS011;2557;51.390;7.494;2022-10-16T01:39:02;6.57;;;2.60;;
5077;SDS011;2557;51.390;7.494;2022-10-16T01:41:33;5.50;;;2.27;;
5077;SDS011;2557;51.390;7.494;2022-10-16T01:44:04;4.20;;;2.83;;
5077;SDS011;2557;51.390;7.494;2022-10-16T01:46:32;4.40;;;2.33;;
5077;SDS011;2557;51.390;7.494;2022-10-16T01:48:59;2.33;;;1.80;;
5077;SDS011;2557;51.390;7.494;2022-10-16T01:51:26;3.07;;;2.70;;
5077;SDS011;2557;51.390;7.494;2022-10-16T01:53:53;3.73;;;2.50;;
5077;SDS011;2557;51.390;7.494;2022-10-16T01:56:21;3.13;;;2.47;;
5077;SDS011;2557;51.390;7.494;2022-10-16T01:58:52;2.00;;;1.90;;
5077;SDS011;2557;51.390;7.494;2022-10-16T02:01:19;5.40;;;2.53;;
5077;SDS011;2557;51.390;7.494;2022-10-16T02:03:46;2.87;;;2.67;;
5077;SDS011;2557;51.390;7.494;2022-10-16T02:06:12;4.30;;;2.63;;
5077;SDS011;2557;51.390;7.494;2022-10-16T02:08:38;2.50;;;2.30;;
5077;SDS011;2557;51.390;7.494;2022-10-16T02:11:09;2.50;;;2.30;;
5077;SDS011;2557;51.390;7.494;2022-10-16T02:13:37;4.00;;;3.80;;
5077;SDS011;2557;51.390;7.494;2022-10-16T02:16:04;2.27;;;2.07;;
5077;SDS011;2557;51.390;7.494;2022-10-16T02:18:30;3.77;;;2.20;;
5077;SDS011;2557;51.390;7.494;2022-10-16T02:21:00;6.23;;;2.30;;
5077;SDS011;2557;51.390;7.494;2022-10-16T02:23:34;3.13;;;2.63;;
5077;SDS011;2557;51.390;7.494;2022-10-16T02:26:01;2.93;;;2.70;;
5077;SDS011;2557;51.390;7.494;2022-10-16T02:28:32;2.50;;;2.30;;
5077;SDS011;2557;51.390;7.494;2022-10-16T02:31:01;3.10;;;2.30;;
5077;SDS011;2557;51.390;7.494;2022-10-16T02:33:29;3.03;;;2.43;;
5077;SDS011;2557;51.390;7.494;2022-10-16T02:35:56;5.40;;;2.37;;
5077;SDS011;2557;51.390;7.494;2022-10-16T02:38:22;2.50;;;2.40;;
5077;SDS011;2557;51.390;7.494;2022-10-16T02:40:49;5.17;;;3.00;;
5077;SDS011;2557;51.390;7.494;2022-10-16T02:43:15;6.77;;;2.20;;
5077;SDS011;2557;51.390;7.494;2022-10-16T02:45:41;3.90;;;2.50;;
5077;SDS011;2557;51.390;7.494;2022-10-16T02:48:08;3.07;;;2.70;;
5077;SDS011;2557;51.390;7.494;2022-10-16T02:50:34;4.07;;;2.43;;
5077;SDS011;2557;51.390;7.494;2022-10-16T02:53:00;3.00;;;2.83;;
5077;SDS011;2557;51.390;7.494;2022-10-16T02:55:26;2.57;;;2.30;;
5077;SDS011;2557;51.390;7.494;2022-10-16T02:57:52;2.37;;;2.27;;
5077;SDS011;2557;51.390;7.494;2022-10-16T03:00:19;3.93;;;2.40;;
5077;SDS011;2557;51.390;7.494;2022-10-16T03:02:45;2.30;;;2.10;;
5077;SDS011;2557;51.390;7.494;2022-10-16T03:05:12;2.17;;;2.07;;
5077;SDS011;2557;51.390;7.494;2022-10-16T03:07:38;4.10;;;2.40;;
5077;SDS011;2557;51.390;7.494;2022-10-16T03:10:04;2.60;;;2.20;;
5077;SDS011;2557;51.390;7.494;2022-10-16T03:12:30;6.07;;;2.40;;
5077;SDS011;2557;51.390;7.494;2022-10-16T03:14:56;7.03;;;2.50;;
5077;SDS011;2557;51.390;7.494;2022-10-16T03:17:23;6.03;;;2.30;;
5077;SDS011;2557;51.390;7.494;2022-10-16T03:19:49;2.60;;;2.13;;
5077;SDS011;2557;51.390;7.494;2022-10-16T03:22:15;7.37;;;2.27;;
5077;SDS011;2557;51.390;7.494;2022-10-16T03:24:41;2.93;;;2.20;;
5077;SDS011;2557;51.390;7.494;2022-10-16T03:27:07;6.97;;;2.30;;
5077;SDS011;2557;51.390;7.494;2022-10-16T03:29:33;2.30;;;2.10;;
5077;SDS011;2557;51.390;7.494;2022-10-16T03:31:59;2.10;;;2.00;;
5077;SDS011;2557;51.390;7.494;2022-10-16T03:34:25;2.07;;;1.97;;
5077;SDS011;2557;51.390;7.494;2022-10-16T03:36:51;2.00;;;1.90;;
5077;SDS011;2557;51.390;7.494;2022-10-16T03:39:17;1.97;;;1.87;;
5077;SDS011;2557;51.390;7.494;2022-10-16T03:41:43;2.27;;;2.10;;
5077;SDS011;2557;51.390;7.494;2022-10-16T03:44:11;2.00;;;1.90;;
5077;SDS011;2557;51.390;7.494;2022-10-16T03:46:37;2.30;;;2.07;;
5077;SDS011;2557;51.390;7.494;2022-10-16T03:49:03;2.63;;;2.10;;
5077;SDS011;2557;51.390;7.494;2022-10-16T03:51:29;3.13;;;2.20;;
5077;SDS011;2557;51.390;7.494;2022-10-16T03:53:55;2.57;;;2.37;;
5077;SDS011;2557;51.390;7.494;2022-10-16T03:56:21;2.00;;;1.83;;
5077;SDS011;2557;51.390;7.494;2022-10-16T03:58:47;2.00;;;1.70;;
5077;SDS011;2557;51.390;7.494;2022-10-16T04:01:13;1.90;;;1.80;;
5077;SDS011;2557;51.390;7.494;2022-10-16T04:03:39;3.60;;;1.93;;
5077;SDS011;2557;51.390;7.494;2022-10-16T04:06:05;2.10;;;2.00;;
5077;SDS011;2557;51.390;7.494;2022-10-16T04:08:31;2.33;;;1.70;;
5077;SDS011;2557;51.390;7.494;2022-10-16T04:10:59;2.80;;;2.20;;
5077;SDS011;2557;51.390;7.494;2022-10-16T04:13:26;2.77;;;2.00;;
5077;SDS011;2557;51.390;7.494;2022-10-16T04:15:52;4.33;;;1.97;;
5077;SDS011;2557;51.390;7.494;2022-10-16T04:18:18;2.93;;;2.20;;
5077;SDS011;2557;51.390;7.494;2022-10-16T04:20:44;2.57;;;2.00;;
5077;SDS011;2557;51.390;7.494;2022-10-16T04:23:10;2.90;;;1.70;;
5077;SDS011;2557;51.390;7.494;2022-10-16T04:25:36;2.10;;;1.90;;
5077;SDS011;2557;51.390;7.494;2022-10-16T04:28:02;10.23;;;2.13;;
5077;SDS011;2557;51.390;7.494;2022-10-16T04:30:28;1.87;;;1.77;;
5077;SDS011;2557;51.390;7.494;2022-10-16T04:32:54;9.17;;;1.90;;
5077;SDS011;2557;51.390;7.494;2022-10-16T04:35:21;2.50;;;2.23;;
5077;SDS011;2557;51.390;7.494;2022-10-16T04:37:47;4.37;;;1.87;;
5077;SDS011;2557;51.390;7.494;2022-10-16T04:40:13;5.23;;;1.97;;
5077;SDS011;2557;51.390;7.494;2022-10-16T04:42:40;1.60;;;1.50;;
5077;SDS011;2557;51.390;7.494;2022-10-16T04:45:06;2.17;;;1.90;;
5077;SDS011;2557;51.390;7.494;2022-10-16T04:47:33;2.30;;;2.10;;
5077;SDS011;2557;51.390;7.494;2022-10-16T04:49:59;3.70;;;2.13;;
5077;SDS011;2557;51.390;7.494;2022-10-16T04:52:26;2.70;;;1.80;;
5077;SDS011;2557;51.390;7.494;2022-10-16T04:54:52;6.50;;;1.97;;
5077;SDS011;2557;51.390;7.494;2022-10-16T04:57:19;3.13;;;2.63;;
5077;SDS011;2557;51.390;7.494;2022-10-16T04:59:45;2.77;;;2.57;;
5077;SDS011;2557;51.390;7.494;2022-10-16T05:02:11;2.10;;;1.90;;
5077;SDS011;2557;51.390;7.494;2022-10-16T05:04:37;4.23;;;1.80;;
5077;SDS011;2557;51.390;7.494;2022-10-16T05:07:03;3.00;;;1.70;;
5077;SDS011;2557;51.390;7.494;2022-10-16T05:09:29;1.93;;;1.73;;
5077;SDS011;2557;51.390;7.494;2022-10-16T05:11:55;3.10;;;1.67;;
5077;SDS011;2557;51.390;7.494;2022-10-16T05:14:21;2.70;;;1.90;;
5077;SDS011;2557;51.390;7.494;2022-10-16T05:16:47;1.70;;;1.60;;
5077;SDS011;2557;51.390;7.494;2022-10-16T05:19:13;1.60;;;1.50;;
5077;SDS011;2557;51.390;7.494;2022-10-16T05:21:39;2.07;;;1.93;;
5077;SDS011;2557;51.390;7.494;2022-10-16T05:24:05;2.23;;;1.63;;
5077;SDS011;2557;51.390;7.494;2022-10-16T05:26:31;3.20;;;1.80;;
5077;SDS011;2557;51.390;7.494;2022-10-16T05:28:57;3.03;;;1.53;;
5077;SDS011;2557;51.390;7.494;2022-10-16T05:31:23;2.43;;;2.00;;
5077;SDS011;2557;51.390;7.494;2022-10-16T05:33:49;2.00;;;1.80;;
5077;SDS011;2557;51.390;7.494;2022-10-16T05:36:15;5.07;;;1.60;;
5077;SDS011;2557;51.390;7.494;2022-10-16T05:38:41;1.77;;;1.67;;
5077;SDS011;2557;51.390;7.494;2022-10-16T05:41:07;3.60;;;1.93;;
5077;SDS011;2557;51.390;7.494;2022-10-16T05:43:33;1.87;;;1.70;;
5077;SDS011;2557;51.390;7.494;2022-10-16T05:46:05;1.77;;;1.67;;
5077;SDS011;2557;51.390;7.494;2022-10-16T05:48:31;4.40;;;1.60;;
5077;SDS011;2557;51.390;7.494;2022-10-16T05:53:23;3.23;;;2.13;;
5077;SDS011;2557;51.390;7.494;2022-10-16T05:55:56;6.40;;;1.70;;
5077;SDS011;2557;51.390;7.494;2022-10-16T05:58:23;4.37;;;1.90;;
5077;SDS011;2557;51.390;7.494;2022-10-16T06:00:53;2.80;;;1.97;;
5077;SDS011;2557;51.390;7.494;2022-10-16T06:03:18;1.87;;;1.63;;
5077;SDS011;2557;51.390;7.494;2022-10-16T06:05:44;2.03;;;1.50;;
5077;SDS011;2557;51.390;7.494;2022-10-16T06:08:10;1.77;;;1.67;;
5077;SDS011;2557;51.390;7.494;2022-10-16T06:10:36;2.00;;;1.47;;
5077;SDS011;2557;51.390;7.494;2022-10-16T06:13:02;1.80;;;1.70;;
5077;SDS011;2557;51.390;7.494;2022-10-16T06:15:28;2.43;;;1.97;;
5077;SDS011;2557;51.390;7.494;2022-10-16T06:17:54;1.80;;;1.70;;
5077;SDS011;2557;51.390;7.494;2022-10-16T06:20:20;1.80;;;1.70;;
5077;SDS011;2557;51.390;7.494;2022-10-16T06:22:46;1.90;;;1.70;;
5077;SDS011;2557;51.390;7.494;2022-10-16T06:25:12;5.80;;;1.80;;
5077;SDS011;2557;51.390;7.494;2022-10-16T06:27:39;4.80;;;1.60;;
5077;SDS011;2557;51.390;7.494;2022-10-16T06:30:05;4.10;;;2.00;;
5077;SDS011;2557;51.390;7.494;2022-10-16T06:32:32;1.93;;;1.67;;
5077;SDS011;2557;51.390;7.494;2022-10-16T06:34:58;2.70;;;1.70;;
5077;SDS011;2557;51.390;7.494;2022-10-16T06:37:24;2.70;;;2.03;;
5077;SDS011;2557;51.390;7.494;2022-10-16T06:39:50;7.43;;;2.30;;
5077;SDS011;2557;51.390;7.494;2022-10-16T06:42:19;2.13;;;1.73;;
5077;SDS011;2557;51.390;7.494;2022-10-16T06:44:45;4.60;;;2.00;;
5077;SDS011;2557;51.390;7.494;2022-10-16T06:47:11;4.10;;;1.83;;
5077;SDS011;2557;51.390;7.494;2022-10-16T06:49:37;2.20;;;1.93;;
5077;SDS011;2557;51.390;7.494;2022-10-16T06:52:03;1.90;;;1.80;;
5077;SDS011;2557;51.390;7.494;2022-10-16T06:54:29;2.20;;;1.40;;
5077;SDS011;2557;51.390;7.494;2022-10-16T06:56:55;1.90;;;1.80;;
5077;SDS011;2557;51.390;7.494;2022-10-16T06:59:21;2.00;;;1.90;;
5077;SDS011;2557;51.390;7.494;2022-10-16T07:01:47;2.57;;;2.37;;
5077;SDS011;2557;51.390;7.494;2022-10-16T07:04:13;1.87;;;1.73;;
5077;SDS011;2557;51.390;7.494;2022-10-16T07:06:39;2.20;;;2.10;;
5077;SDS011;2557;51.390;7.494;2022-10-16T07:09:08;1.80;;;1.70;;
5077;SDS011;2557;51.390;7.494;2022-10-16T07:11:34;2.00;;;1.83;;
5077;SDS011;2557;51.390;7.494;2022-10-16T07:14:02;2.60;;;1.63;;
5077;SDS011;2557;51.390;7.494;2022-10-16T07:16:29;2.53;;;2.00;;
5077;SDS011;2557;51.390;7.494;2022-10-16T07:18:56;1.70;;;1.60;;
5077;SDS011;2557;51.390;7.494;2022-10-16T07:21:24;2.90;;;2.20;;
5077;SDS011;2557;51.390;7.494;2022-10-16T07:23:54;2.60;;;1.77;;
5077;SDS011;2557;51.390;7.494;2022-10-16T07:26:21;3.23;;;1.83;;
5077;SDS011;2557;51.390;7.494;2022-10-16T07:28:47;2.10;;;1.50;;
5077;SDS011;2557;51.390;7.494;2022-10-16T07:31:13;2.23;;;2.13;;
5077;SDS011;2557;51.390;7.494;2022-10-16T07:33:40;3.40;;;1.80;;
5077;SDS011;2557;51.390;7.494;2022-10-16T07:36:10;4.03;;;1.93;;
5077;SDS011;2557;51.390;7.494;2022-10-16T07:38:36;3.00;;;2.10;;
5077;SDS011;2557;51.390;7.494;2022-10-16T07:41:03;2.33;;;1.50;;
5077;SDS011;2557;51.390;7.494;2022-10-16T07:43:29;1.97;;;1.87;;
5077;SDS011;2557;51.390;7.494;2022-10-16T07:45:56;2.20;;;2.00;;
5077;SDS011;2557;51.390;7.494;2022-10-16T07:48:22;1.97;;;1.60;;
5077;SDS011;2557;51.390;7.494;2022-10-16T07:50:48;1.73;;;1.63;;
5077;SDS011;2557;51.390;7.494;2022-10-16T07:53:15;1.80;;;1.70;;
5077;SDS011;2557;51.390;7.494;2022-10-16T07:55:41;4.63;;;2.23;;
5077;SDS011;2557;51.390;7.494;2022-10-16T07:58:07;2.23;;;2.03;;
5077;SDS011;2557;51.390;7.494;2022-10-16T08:00:33;2.10;;;1.90;;
5077;SDS011;2557;51.390;7.494;2022-10-16T08:02:59;2.20;;;2.00;;
5077;SDS011;2557;51.390;7.494;2022-10-16T08:05:26;2.53;;;2.17;;
5077;SDS011;2557;51.390;7.494;2022-10-16T08:07:52;6.20;;;2.00;;
5077;SDS011;2557;51.390;7.494;2022-10-16T08:10:19;1.90;;;1.80;;
5077;SDS011;2557;51.390;7.494;2022-10-16T08:12:45;2.83;;;2.10;;
5077;SDS011;2557;51.390;7.494;2022-10-16T08:15:11;2.47;;;2.37;;
5077;SDS011;2557;51.390;7.494;2022-10-16T08:17:37;2.73;;;2.43;;
5077;SDS011;2557;51.390;7.494;2022-10-16T08:20:04;2.23;;;2.13;;
5077;SDS011;2557;51.390;7.494;2022-10-16T08:22:30;5.60;;;3.37;;
5077;SDS011;2557;51.390;7.494;2022-10-16T08:24:56;5.03;;;4.60;;
5077;SDS011;2557;51.390;7.494;2022-10-16T08:27:22;3.33;;;2.30;;
5077;SDS011;2557;51.390;7.494;2022-10-16T08:29:48;3.40;;;2.50;;
5077;SDS011;2557;51.390;7.494;2022-10-16T08:32:15;2.57;;;2.37;;
5077;SDS011;2557;51.390;7.494;2022-10-16T08:34:41;2.70;;;2.30;;
5077;SDS011;2557;51.390;7.494;2022-10-16T08:37:07;2.60;;;2.23;;
5077;SDS011;2557;51.390;7.494;2022-10-16T08:39:36;3.70;;;2.40;;
5077;SDS011;2557;51.390;7.494;2022-10-16T08:44:49;1.97;;;1.87;;
5077;SDS011;2557;51.390;7.494;2022-10-16T08:50:09;1.70;;;1.60;;
5077;SDS011;2557;51.390;7.494;2022-10-16T08:52:38;2.80;;;1.73;;
5077;SDS011;2557;51.390;7.494;2022-10-16T08:55:05;2.47;;;1.40;;
5077;SDS011;2557;51.390;7.494;2022-10-16T08:57:31;3.63;;;1.80;;
5077;SDS011;2557;51.390;7.494;2022-10-16T09:00:05;3.77;;;2.20;;
5077;SDS011;2557;51.390;7.494;2022-10-16T09:15:25;6.60;;;2.03;;
5077;SDS011;2557;51.390;7.494;2022-10-16T09:17:56;4.20;;;1.80;;
5077;SDS011;2557;51.390;7.494;2022-10-16T09:23:13;1.50;;;1.33;;
5077;SDS011;2557;51.390;7.494;2022-10-16T09:25:42;2.57;;;1.80;;
5077;SDS011;2557;51.390;7.494;2022-10-16T09:28:08;1.53;;;1.13;;
5077;SDS011;2557;51.390;7.494;2022-10-16T09:30:35;1.83;;;1.20;;
5077;SDS011;2557;51.390;7.494;2022-10-16T09:33:01;2.10;;;1.20;;
5077;SDS011;2557;51.390;7.494;2022-10-16T09:35:43;1.77;;;1.57;;
5077;SDS011;2557;51.390;7.494;2022-10-16T09:38:20;1.77;;;1.60;;
5077;SDS011;2557;51.390;7.494;2022-10-16T09:40:47;2.27;;;1.30;;
5077;SDS011;2557;51.390;7.494;2022-10-16T09:43:20;6.57;;;1.47;;
5077;SDS011;2557;51.390;7.494;2022-10-16T09:45:58;1.77;;;1.10;;
5077;SDS011;2557;51.390;7.494;2022-10-16T09:48:25;1.13;;;1.03;;
5077;SDS011;2557;51.390;7.494;2022-10-16T09:50:55;2.23;;;1.43;;
5077;SDS011;2557;51.390;7.494;2022-10-16T09:53:21;1.67;;;1.10;;
5077;SDS011;2557;51.390;7.494;2022-10-16T09:55:53;1.33;;;1.10;;
5077;SDS011;2557;51.390;7.494;2022-10-16T09:58:22;1.97;;;1.43;;
5077;SDS011;2557;51.390;7.494;2022-10-16T10:00:50;2.43;;;1.37;;
5077;SDS011;2557;51.390;7.494;2022-10-16T10:06:05;1.50;;;1.40;;
5077;SDS011;2557;51.390;7.494;2022-10-16T10:08:32;2.73;;;2.10;;
5077;SDS011;2557;51.390;7.494;2022-10-16T10:10:58;2.30;;;1.57;;
5077;SDS011;2557;51.390;7.494;2022-10-16T10:13:24;2.17;;;1.47;;
5077;SDS011;2557;51.390;7.494;2022-10-16T10:15:51;1.53;;;1.20;;
5077;SDS011;2557;51.390;7.494;2022-10-16T10:18:19;1.80;;;1.40;;
5077;SDS011;2557;51.390;7.494;2022-10-16T10:20:46;2.07;;;1.00;;
5077;SDS011;2557;51.390;7.494;2022-10-16T10:23:23;3.10;;;1.40;;
5077;SDS011;2557;51.390;7.494;2022-10-16T10:26:02;1.80;;;1.40;;
5077;SDS011;2557;51.390;7.494;2022-10-16T10:31:26;1.83;;;1.53;;
5077;SDS011;2557;51.390;7.494;2022-10-16T10:41:34;3.00;;;1.10;;
5077;SDS011;2557;51.390;7.494;2022-10-16T10:51:44;2.20;;;1.20;;
5077;SDS011;2557;51.390;7.494;2022-10-16T10:54:14;4.03;;;1.20;;
5077;SDS011;2557;51.390;7.494;2022-10-16T11:06:55;3.03;;;1.50;;
5077;SDS011;2557;51.390;7.494;2022-10-16T11:09:24;1.77;;;1.30;;
5077;SDS011;2557;51.390;7.494;2022-10-16T11:11:59;2.73;;;1.20;;
5077;SDS011;2557;51.390;7.494;2022-10-16T11:16:56;4.00;;;1.20;;
5077;SDS011;2557;51.390;7.494;2022-10-16T11:19:28;6.90;;;1.30;;
5077;SDS011;2557;51.390;7.494;2022-10-16T11:22:15;7.50;;;1.40;;
5077;SDS011;2557;51.390;7.494;2022-10-16T11:24:48;2.33;;;1.40;;
5077;SDS011;2557;51.390;7.494;2022-10-16T11:27:17;2.27;;;1.10;;
5077;SDS011;2557;51.390;7.494;2022-10-16T11:29:45;1.83;;;1.10;;
5077;SDS011;2557;51.390;7.494;2022-10-16T11:35:25;2.07;;;0.97;;
5077;SDS011;2557;51.390;7.494;2022-10-16T11:37:52;1.37;;;1.17;;
5077;SDS011;2557;51.390;7.494;2022-10-16T11:40:22;1.50;;;0.93;;
5077;SDS011;2557;51.390;7.494;2022-10-16T11:43:02;2.00;;;0.90;;
5077;SDS011;2557;51.390;7.494;2022-10-16T11:45:34;3.50;;;1.07;;
5077;SDS011;2557;51.390;7.494;2022-10-16T11:48:05;3.73;;;1.10;;
5077;SDS011;2557;51.390;7.494;2022-10-16T11:50:37;3.83;;;1.00;;
5077;SDS011;2557;51.390;7.494;2022-10-16T11:55:50;1.57;;;1.37;;
5077;SDS011;2557;51.390;7.494;2022-10-16T11:58:27;1.80;;;1.20;;
5077;SDS011;2557;51.390;7.494;2022-10-16T12:00:58;1.27;;;1.10;;
5077;SDS011;2557;51.390;7.494;2022-10-16T12:05:58;2.67;;;1.03;;
5077;SDS011;2557;51.390;7.494;2022-10-16T12:08:27;1.20;;;1.10;;
5077;SDS011;2557;51.390;7.494;2022-10-16T12:10:54;2.33;;;1.30;;
5077;SDS011;2557;51.390;7.494;2022-10-16T12:13:32;2.03;;;1.10;;
5077;SDS011;2557;51.390;7.494;2022-10-16T12:18:37;2.00;;;1.17;;
5077;SDS011;2557;51.390;7.494;2022-10-16T12:21:04;1.27;;;1.13;;
5077;SDS011;2557;51.390;7.494;2022-10-16T12:23:32;1.53;;;1.30;;
5077;SDS011;2557;51.390;7.494;2022-10-16T12:25:59;2.07;;;1.30;;
5077;SDS011;2557;51.390;7.494;2022-10-16T12:28:27;1.93;;;1.30;;
5077;SDS011;2557;51.390;7.494;2022-10-16T12:30:54;1.27;;;1.10;;
5077;SDS011;2557;51.390;7.494;2022-10-16T12:33:21;1.83;;;1.20;;
5077;SDS011;2557;51.390;7.494;2022-10-16T12:35:48;1.03;;;0.93;;
5077;SDS011;2557;51.390;7.494;2022-10-16T12:38:19;2.20;;;1.10;;
5077;SDS011;2557;51.390;7.494;2022-10-16T12:40:46;2.33;;;1.20;;
5077;SDS011;2557;51.390;7.494;2022-10-16T12:43:23;5.37;;;1.60;;
5077;SDS011;2557;51.390;7.494;2022-10-16T12:45:58;1.37;;;1.20;;
5077;SDS011;2557;51.390;7.494;2022-10-16T12:48:25;4.33;;;1.63;;
5077;SDS011;2557;51.390;7.494;2022-10-16T12:50:51;2.00;;;1.20;;
5077;SDS011;2557;51.390;7.494;2022-10-16T12:53:21;10.30;;;1.93;;
5077;SDS011;2557;51.390;7.494;2022-10-16T12:58:48;8.27;;;1.60;;
5077;SDS011;2557;51.390;7.494;2022-10-16T13:04:08;1.97;;;1.20;;
5077;SDS011;2557;51.390;7.494;2022-10-16T13:06:47;2.70;;;1.40;;
5077;SDS011;2557;51.390;7.494;2022-10-16T13:09:22;1.40;;;1.30;;
5077;SDS011;2557;51.390;7.494;2022-10-16T13:12:04;1.23;;;1.00;;
5077;SDS011;2557;51.390;7.494;2022-10-16T13:14:37;5.73;;;1.63;;
5077;SDS011;2557;51.390;7.494;2022-10-16T13:17:14;5.33;;;1.30;;
5077;SDS011;2557;51.390;7.494;2022-10-16T13:19:55;4.50;;;1.40;;
5077;SDS011;2557;51.390;7.494;2022-10-16T13:22:24;5.20;;;1.57;;
5077;SDS011;2557;51.390;7.494;2022-10-16T13:27:32;8.77;;;2.27;;
5077;SDS011;2557;51.390;7.494;2022-10-16T13:30:02;1.90;;;1.27;;
5077;SDS011;2557;51.390;7.494;2022-10-16T13:32:35;6.60;;;2.43;;
5077;SDS011;2557;51.390;7.494;2022-10-16T13:35:01;1.50;;;1.40;;
5077;SDS011;2557;51.390;7.494;2022-10-16T13:37:28;3.10;;;1.53;;
5077;SDS011;2557;51.390;7.494;2022-10-16T13:42:39;5.00;;;1.50;;
5077;SDS011;2557;51.390;7.494;2022-10-16T13:45:17;2.90;;;1.10;;
5077;SDS011;2557;51.390;7.494;2022-10-16T13:47:43;1.43;;;1.30;;
5077;SDS011;2557;51.390;7.494;2022-10-16T13:50:11;1.97;;;1.30;;
5077;SDS011;2557;51.390;7.494;2022-10-16T13:52:38;2.67;;;1.20;;
5077;SDS011;2557;51.390;7.494;2022-10-16T13:55:04;1.47;;;1.27;;
5077;SDS011;2557;51.390;7.494;2022-10-16T13:57:36;3.33;;;1.40;;
5077;SDS011;2557;51.390;7.494;2022-10-16T14:00:02;3.57;;;1.97;;
5077;SDS011;2557;51.390;7.494;2022-10-16T14:02:33;2.53;;;1.63;;
5077;SDS011;2557;51.390;7.494;2022-10-16T14:05:00;5.93;;;1.53;;
5077;SDS011;2557;51.390;7.494;2022-10-16T14:07:31;4.40;;;1.20;;
5077;SDS011;2557;51.390;7.494;2022-10-16T14:10:05;1.70;;;1.30;;
5077;SDS011;2557;51.390;7.494;2022-10-16T14:12:32;7.13;;;2.03;;
5077;SDS011;2557;51.390;7.494;2022-10-16T14:14:58;3.97;;;1.53;;
5077;SDS011;2557;51.390;7.494;2022-10-16T14:17:29;4.57;;;1.60;;
5077;SDS011;2557;51.390;7.494;2022-10-16T14:19:56;5.33;;;1.37;;
5077;SDS011;2557;51.390;7.494;2022-10-16T14:22:30;1.87;;;1.10;;
5077;SDS011;2557;51.390;7.494;2022-10-16T14:24:57;2.73;;;1.23;;
5077;SDS011;2557;51.390;7.494;2022-10-16T14:32:34;2.53;;;1.30;;
5077;SDS011;2557;51.390;7.494;2022-10-16T14:35:00;2.90;;;1.27;;
5077;SDS011;2557;51.390;7.494;2022-10-16T14:37:26;1.87;;;1.67;;
5077;SDS011;2557;51.390;7.494;2022-10-16T14:39:53;3.03;;;1.30;;
5077;SDS011;2557;51.390;7.494;2022-10-16T14:42:20;1.37;;;1.10;;
5077;SDS011;2557;51.390;7.494;2022-10-16T14:44:49;1.67;;;1.20;;
5077;SDS011;2557;51.390;7.494;2022-10-16T14:47:18;5.97;;;1.87;;
5077;SDS011;2557;51.390;7.494;2022-10-16T14:49:49;2.67;;;1.40;;
5077;SDS011;2557;51.390;7.494;2022-10-16T14:52:16;3.60;;;1.57;;
5077;SDS011;2557;51.390;7.494;2022-10-16T14:54:42;3.73;;;1.43;;
5077;SDS011;2557;51.390;7.494;2022-10-16T14:57:18;2.90;;;1.30;;
5077;SDS011;2557;51.390;7.494;2022-10-16T14:59:44;1.37;;;1.27;;
5077;SDS011;2557;51.390;7.494;2022-10-16T15:04:42;5.40;;;2.00;;
5077;SDS011;2557;51.390;7.494;2022-10-16T15:07:08;3.10;;;1.77;;
5077;SDS011;2557;51.390;7.494;2022-10-16T15:09:34;3.57;;;1.67;;
5077;SDS011;2557;51.390;7.494;2022-10-16T15:12:00;3.17;;;1.93;;
5077;SDS011;2557;51.390;7.494;2022-10-16T15:14:26;3.40;;;1.77;;
5077;SDS011;2557;51.390;7.494;2022-10-16T15:16:52;4.40;;;1.53;;
5077;SDS011;2557;51.390;7.494;2022-10-16T15:19:18;2.60;;;1.60;;
5077;SDS011;2557;51.390;7.494;2022-10-16T15:21:44;11.00;;;1.50;;
5077;SDS011;2557;51.390;7.494;2022-10-16T15:24:11;2.70;;;1.73;;
5077;SDS011;2557;51.390;7.494;2022-10-16T15:26:38;4.50;;;1.50;;
5077;SDS011;2557;51.390;7.494;2022-10-16T15:29:04;4.40;;;2.07;;
5077;SDS011;2557;51.390;7.494;2022-10-16T15:31:30;4.97;;;2.20;;
5077;SDS011;2557;51.390;7.494;2022-10-16T15:33:56;6.83;;;2.00;;
5077;SDS011;2557;51.390;7.494;2022-10-16T15:36:30;5.00;;;1.60;;
5077;SDS011;2557;51.390;7.494;2022-10-16T15:38:58;4.50;;;1.60;;
5077;SDS011;2557;51.390;7.494;2022-10-16T15:41:24;4.93;;;1.60;;
5077;SDS011;2557;51.390;7.494;2022-10-16T15:43:50;3.23;;;1.87;;
5077;SDS011;2557;51.390;7.494;2022-10-16T15:46:20;3.77;;;1.50;;
5077;SDS011;2557;51.390;7.494;2022-10-16T15:48:47;3.83;;;1.60;;
5077;SDS011;2557;51.390;7.494;2022-10-16T15:51:13;8.00;;;2.00;;
5077;SDS011;2557;51.390;7.494;2022-10-16T15:53:39;3.73;;;1.50;;
5077;SDS011;2557;51.390;7.494;2022-10-16T15:56:06;3.23;;;1.70;;
5077;SDS011;2557;51.390;7.494;2022-10-16T15:58:33;1.57;;;1.47;;
5077;SDS011;2557;51.390;7.494;2022-10-16T16:00:59;6.33;;;1.80;;
5077;SDS011;2557;51.390;7.494;2022-10-16T16:03:26;7.07;;;2.00;;
5077;SDS011;2557;51.390;7.494;2022-10-16T16:05:52;14.40;;;1.93;;
5077;SDS011;2557;51.390;7.494;2022-10-16T16:08:18;16.07;;;1.90;;
5077;SDS011;2557;51.390;7.494;2022-10-16T16:10:44;4.90;;;1.60;;
5077;SDS011;2557;51.390;7.494;2022-10-16T16:13:11;5.60;;;1.70;;
5077;SDS011;2557;51.390;7.494;2022-10-16T16:15:40;12.47;;;2.07;;
5077;SDS011;2557;51.390;7.494;2022-10-16T16:18:06;3.40;;;1.63;;
5077;SDS011;2557;51.390;7.494;2022-10-16T16:20:34;4.17;;;1.60;;
5077;SDS011;2557;51.390;7.494;2022-10-16T16:23:00;9.67;;;2.17;;
5077;SDS011;2557;51.390;7.494;2022-10-16T16:25:26;2.20;;;1.60;;
5077;SDS011;2557;51.390;7.494;2022-10-16T16:27:52;3.83;;;1.57;;
5077;SDS011;2557;51.390;7.494;2022-10-16T16:30:18;9.30;;;1.83;;
5077;SDS011;2557;51.390;7.494;2022-10-16T16:32:45;3.43;;;1.93;;
5077;SDS011;2557;51.390;7.494;2022-10-16T16:35:11;5.03;;;2.00;;
5077;SDS011;2557;51.390;7.494;2022-10-16T16:37:37;9.73;;;2.00;;
5077;SDS011;2557;51.390;7.494;2022-10-16T16:40:03;4.87;;;2.43;;
5077;SDS011;2557;51.390;7.494;2022-10-16T16:42:29;12.80;;;2.60;;
5077;SDS011;2557;51.390;7.494;2022-10-16T16:44:55;10.43;;;2.90;;
5077;SDS011;2557;51.390;7.494;2022-10-16T16:47:21;6.10;;;1.87;;
5077;SDS011;2557;51.390;7.494;2022-10-16T16:49:47;7.43;;;2.77;;